createdAt,value
2023-03-22T00:00:31.771Z,10.07
2023-03-22T00:03:28.201Z,10.08
2023-03-22T00:06:03.247Z,9.98
2023-03-22T00:08:35.323Z,9.93
2023-03-22T00:11:10.353Z,9.91
2023-03-22T00:13:44.300Z,9.84
2023-03-22T00:16:16.462Z,9.81
2023-03-22T00:18:48.965Z,9.74
2023-03-22T00:21:21.449Z,9.68
2023-03-22T00:23:53.490Z,9.71
2023-03-22T00:26:29.049Z,9.64
2023-03-22T00:29:04.367Z,9.56
2023-03-22T00:31:36.746Z,9.54
2023-03-22T00:34:08.796Z,9.54
2023-03-22T00:36:40.640Z,9.47
2023-03-22T00:39:12.949Z,9.56
2023-03-22T00:41:48.225Z,9.60
2023-03-22T00:44:36.312Z,9.64
2023-03-22T00:47:09.357Z,9.63
2023-03-22T00:49:42.181Z,9.69
2023-03-22T00:52:13.790Z,9.70
2023-03-22T00:54:55.371Z,9.70
2023-03-22T00:57:36.711Z,9.68
2023-03-22T01:00:32.502Z,9.67
2023-03-22T01:03:08.886Z,9.63
2023-03-22T01:06:29.513Z,9.64
2023-03-22T01:09:24.196Z,9.57
2023-03-22T01:11:56.496Z,9.55
2023-03-22T01:14:31.988Z,9.56
2023-03-22T01:17:04.037Z,9.43
2023-03-22T01:19:36.089Z,9.43
2023-03-22T01:22:09.406Z,9.46
2023-03-22T01:24:43.871Z,9.40
2023-03-22T01:27:15.746Z,9.44
2023-03-22T01:29:50.127Z,9.43
2023-03-22T01:32:22.145Z,9.37
2023-03-22T01:34:53.991Z,9.47
2023-03-22T01:38:20.486Z,9.57
2023-03-22T01:41:13.549Z,9.57
2023-03-22T01:43:45.908Z,9.58
2023-03-22T01:46:21.048Z,9.54
2023-03-22T01:48:53.531Z,9.48
2023-03-22T01:51:28.013Z,9.48
2023-03-22T01:54:04.207Z,9.42
2023-03-22T01:56:39.419Z,9.44
2023-03-22T01:59:14.849Z,9.47
2023-03-22T02:01:50.201Z,9.46
2023-03-22T02:04:25.384Z,9.40
2023-03-22T02:06:58.352Z,9.44
2023-03-22T02:09:33.883Z,9.42
2023-03-22T02:12:20.382Z,9.40
2023-03-22T02:15:07.762Z,9.39
2023-03-22T02:18:00.038Z,9.32
2023-03-22T02:21:10.654Z,9.32
2023-03-22T02:24:12.640Z,9.25
2023-03-22T02:27:10.894Z,9.22
2023-03-22T02:29:47.790Z,9.20
2023-03-22T02:32:55.600Z,9.17
2023-03-22T02:35:46.943Z,9.17
2023-03-22T02:39:00.825Z,9.18
2023-03-22T02:41:46.415Z,9.16
2023-03-22T02:44:30.272Z,9.18
2023-03-22T02:47:08.114Z,9.14
2023-03-22T02:49:44.771Z,9.18
2023-03-22T02:52:22.238Z,9.12
2023-03-22T02:54:59.784Z,9.09
2023-03-22T02:57:40.210Z,9.10
2023-03-22T03:00:16.221Z,9.04
2023-03-22T03:02:54.288Z,9.00
2023-03-22T03:05:28.677Z,9.09
2023-03-22T03:08:04.218Z,9.04
2023-03-22T03:11:07.952Z,9.08
2023-03-22T03:13:42.953Z,9.05
2023-03-22T03:16:17.794Z,8.99
2023-03-22T03:18:56.429Z,8.83
2023-03-22T03:21:35.175Z,8.86
2023-03-22T03:24:22.932Z,8.73
2023-03-22T03:27:04.340Z,8.74
2023-03-22T03:29:43.732Z,8.74
2023-03-22T03:32:22.807Z,8.69
2023-03-22T03:34:59.780Z,8.64
2023-03-22T03:37:37.362Z,8.49
2023-03-22T03:40:14.284Z,8.52
2023-03-22T03:42:52.028Z,8.61
2023-03-22T03:45:27.431Z,8.53
2023-03-22T03:48:04.063Z,8.57
2023-03-22T03:50:36.356Z,8.58
2023-03-22T03:53:08.590Z,8.57
2023-03-22T03:55:40.844Z,8.66
2023-03-22T03:58:12.809Z,8.68
2023-03-22T04:00:48.241Z,8.68
2023-03-22T04:03:20.337Z,8.61
2023-03-22T04:05:52.800Z,8.62
2023-03-22T04:08:24.878Z,8.68
2023-03-22T04:10:57.371Z,8.65
2023-03-22T04:13:30.081Z,8.68
2023-03-22T04:16:05.272Z,8.67
2023-03-22T04:18:37.440Z,8.73
2023-03-22T04:21:12.495Z,8.74
2023-03-22T04:23:47.132Z,8.74
2023-03-22T04:26:19.660Z,8.76
2023-03-22T04:28:52.032Z,8.66
2023-03-22T04:31:27.354Z,8.67
2023-03-22T04:34:05.915Z,8.63
2023-03-22T04:36:40.188Z,8.64
2023-03-22T04:39:14.219Z,8.75
2023-03-22T04:41:46.731Z,8.79
2023-03-22T04:44:18.769Z,8.82
2023-03-22T04:46:54.512Z,8.75
2023-03-22T04:49:27.321Z,8.76
2023-03-22T04:51:59.649Z,8.74
2023-03-22T04:54:31.630Z,8.78
2023-03-22T04:57:04.109Z,8.80
2023-03-22T04:59:36.238Z,8.82
2023-03-22T05:02:11.150Z,8.76
2023-03-22T05:04:43.176Z,8.81
2023-03-22T05:07:15.569Z,8.80
2023-03-22T05:09:47.602Z,8.80
2023-03-22T05:12:19.879Z,8.91
2023-03-22T05:14:51.879Z,8.87
2023-03-22T05:17:27.039Z,8.90
2023-03-22T05:19:59.069Z,9.00
2023-03-22T05:22:38.380Z,8.96
2023-03-22T05:25:15.298Z,9.01
2023-03-22T05:27:50.524Z,8.94
2023-03-22T05:30:23.159Z,8.99
2023-03-22T05:33:00.799Z,8.94
2023-03-22T05:35:35.062Z,8.97
2023-03-22T05:38:07.954Z,9.01
2023-03-22T05:40:40.353Z,8.98
2023-03-22T05:43:13.279Z,9.03
2023-03-22T05:45:46.047Z,9.12
2023-03-22T05:48:21.249Z,9.11
2023-03-22T05:51:27.518Z,9.07
2023-03-22T05:54:01.408Z,9.15
2023-03-22T05:56:37.065Z,9.09
2023-03-22T05:59:10.188Z,9.14
2023-03-22T06:01:43.885Z,9.16
2023-03-22T06:04:18.893Z,9.18
2023-03-22T06:06:50.782Z,9.15
2023-03-22T06:09:23.148Z,9.22
2023-03-22T06:11:54.852Z,9.16
2023-03-22T06:14:26.962Z,9.32
2023-03-22T06:16:58.519Z,9.29
2023-03-22T06:19:33.369Z,9.27
2023-03-22T06:22:05.213Z,9.33
2023-03-22T06:24:37.404Z,9.35
2023-03-22T06:27:10.372Z,9.35
2023-03-22T06:29:42.709Z,9.38
2023-03-22T06:32:14.497Z,9.50
2023-03-22T06:34:49.283Z,9.50
2023-03-22T06:37:21.101Z,9.43
2023-03-22T06:39:54.015Z,9.43
2023-03-22T06:42:26.534Z,9.51
2023-03-22T06:44:58.120Z,9.55
2023-03-22T06:47:29.728Z,9.50
2023-03-22T06:50:04.087Z,9.54
2023-03-22T06:52:35.565Z,9.64
2023-03-22T06:55:08.299Z,9.71
2023-03-22T06:57:39.516Z,9.60
2023-03-22T07:00:13.092Z,9.70
2023-03-22T07:02:44.338Z,9.76
2023-03-22T07:05:18.412Z,9.84
2023-03-22T07:07:49.994Z,9.94
2023-03-22T07:10:21.632Z,10.03
2023-03-22T07:12:52.576Z,10.07
2023-03-22T07:15:24.660Z,10.13
2023-03-22T07:17:56.307Z,10.15
2023-03-22T07:20:30.754Z,10.17
2023-03-22T07:23:02.240Z,10.21
2023-03-22T07:25:34.975Z,10.17
2023-03-22T07:28:07.301Z,10.27
2023-03-22T07:30:39.101Z,10.45
2023-03-22T07:33:12.670Z,10.64
2023-03-22T07:35:49.238Z,10.74
2023-03-22T07:38:21.437Z,10.80
2023-03-22T07:40:56.226Z,10.75
2023-03-22T07:43:27.991Z,10.96
2023-03-22T07:46:00.946Z,11.16
2023-03-22T07:48:32.835Z,11.28
2023-03-22T07:51:08.286Z,11.50
2023-03-22T07:53:39.687Z,11.77
2023-03-22T07:56:12.698Z,11.95
2023-03-22T07:58:43.926Z,12.01
2023-03-22T08:01:15.654Z,12.13
2023-03-22T08:03:47.293Z,12.31
2023-03-22T08:06:22.840Z,12.46
2023-03-22T08:08:54.055Z,12.69
2023-03-22T08:11:25.837Z,12.68
2023-03-22T08:13:57.366Z,12.67
2023-03-22T08:16:29.050Z,12.82
2023-03-22T08:19:00.564Z,12.63
2023-03-22T08:21:34.912Z,12.71
2023-03-22T08:24:06.616Z,12.79
2023-03-22T08:26:39.843Z,13.00
2023-03-22T08:29:11.426Z,12.71
2023-03-22T08:31:43.248Z,12.98
2023-03-22T08:34:14.667Z,13.14
2023-03-22T08:36:49.388Z,13.18
2023-03-22T08:39:21.818Z,13.19
2023-03-22T08:41:53.841Z,13.34
2023-03-22T08:44:26.000Z,13.21
2023-03-22T08:46:58.181Z,13.47
2023-03-22T08:49:30.281Z,13.48
2023-03-22T08:52:09.368Z,13.68
2023-03-22T08:54:41.310Z,13.76
2023-03-22T08:57:14.637Z,13.74
2023-03-22T08:59:46.651Z,13.69
2023-03-22T09:02:18.867Z,13.82
2023-03-22T09:04:50.889Z,14.06
2023-03-22T09:07:25.960Z,14.04
2023-03-22T09:09:57.610Z,14.08
2023-03-22T09:12:30.048Z,14.21
2023-03-22T09:15:01.727Z,14.32
2023-03-22T09:17:33.752Z,14.47
2023-03-22T09:20:12.407Z,14.53
2023-03-22T09:22:48.037Z,14.93
2023-03-22T09:25:19.744Z,15.26
2023-03-22T09:27:51.443Z,15.44
2023-03-22T09:30:23.146Z,15.57
2023-03-22T09:32:55.359Z,15.78
2023-03-22T09:35:26.984Z,16.07
2023-03-22T09:38:03.765Z,16.17
2023-03-22T09:40:38.401Z,16.07
2023-03-22T09:43:15.885Z,16.12
2023-03-22T09:45:52.184Z,16.15
2023-03-22T09:48:30.295Z,16.40
2023-03-22T09:51:04.820Z,16.75
2023-03-22T09:53:39.531Z,16.80
2023-03-22T09:56:17.739Z,16.88
2023-03-22T09:58:56.286Z,17.14
2023-03-22T10:01:38.055Z,17.61
2023-03-22T10:04:40.331Z,18.30
2023-03-22T10:07:22.466Z,19.43
2023-03-22T10:10:10.055Z,19.38
2023-03-22T10:12:46.669Z,19.96
2023-03-22T10:15:22.542Z,19.06
2023-03-22T10:17:58.998Z,18.76
2023-03-22T10:20:37.754Z,18.78
2023-03-22T10:23:14.541Z,18.92
2023-03-22T10:25:50.527Z,18.49
2023-03-22T10:28:27.100Z,18.37
2023-03-22T10:31:02.266Z,18.72
2023-03-22T10:33:50.588Z,18.85
2023-03-22T10:36:28.015Z,18.71
2023-03-22T10:39:04.144Z,19.36
2023-03-22T10:41:39.910Z,19.70
2023-03-22T10:44:18.369Z,19.80
2023-03-22T10:46:54.032Z,19.64
2023-03-22T10:49:33.778Z,19.42
2023-03-22T10:52:12.729Z,18.93
2023-03-22T10:54:44.251Z,18.95
2023-03-22T10:57:19.187Z,18.42
2023-03-22T10:59:53.030Z,18.22
2023-03-22T11:02:27.829Z,18.25
2023-03-22T11:05:01.913Z,17.82
2023-03-22T11:07:38.427Z,18.14
2023-03-22T11:10:27.682Z,18.21
2023-03-22T11:13:16.706Z,18.24
2023-03-22T11:15:57.577Z,18.42
2023-03-22T11:18:34.050Z,18.75
2023-03-22T11:21:11.368Z,18.93
2023-03-22T11:23:49.025Z,18.54
2023-03-22T11:26:30.547Z,18.28
2023-03-22T11:29:16.767Z,18.05
2023-03-22T11:32:00.644Z,17.77
2023-03-22T11:34:34.607Z,17.60
2023-03-22T11:37:12.410Z,17.72
2023-03-22T11:40:07.275Z,17.85
2023-03-22T11:43:33.604Z,18.05
2023-03-22T11:47:32.011Z,18.44
2023-03-22T11:51:12.660Z,18.36
2023-03-22T12:03:01.503Z,19.77
2023-03-22T12:10:54.476Z,19.31
2023-03-22T12:14:30.310Z,18.68
2023-03-22T12:18:04.077Z,18.25
2023-03-22T12:21:55.195Z,18.38
2023-03-22T12:28:59.000Z,18.48
2023-03-22T12:32:25.367Z,17.99
2023-03-22T12:36:08.385Z,17.90
2023-03-22T12:40:21.974Z,17.81
2023-03-22T12:44:17.833Z,18.23
2023-03-22T12:51:44.552Z,17.80
2023-03-22T12:58:45.254Z,17.93
2023-03-22T13:01:52.612Z,17.97
2023-03-22T13:08:25.994Z,17.53
2023-03-22T13:11:25.073Z,17.71
2023-03-22T13:13:57.519Z,17.75
2023-03-22T13:17:14.162Z,17.71
2023-03-22T13:20:01.665Z,17.81
2023-03-22T13:22:54.205Z,17.78
2023-03-22T13:25:36.166Z,17.72
2023-03-22T13:28:29.244Z,17.71
2023-03-22T13:31:02.332Z,17.64
2023-03-22T13:33:39.138Z,17.77
2023-03-22T13:36:26.472Z,18.02
2023-03-22T13:38:59.439Z,18.28
2023-03-22T13:41:33.642Z,17.60
2023-03-22T13:44:22.066Z,17.41
2023-03-22T13:46:56.559Z,17.40
2023-03-22T13:50:00.124Z,17.47
2023-03-22T13:52:40.293Z,17.58
2023-03-22T13:55:41.873Z,17.50
2023-03-22T13:58:36.700Z,17.48
2023-03-22T14:01:11.478Z,17.39
2023-03-22T14:03:47.830Z,17.89
2023-03-22T14:06:37.633Z,18.00
2023-03-22T14:09:28.836Z,17.70
2023-03-22T14:12:08.695Z,17.96
2023-03-22T14:14:47.624Z,17.96
2023-03-22T14:17:30.656Z,18.09
2023-03-22T14:20:05.285Z,18.11
2023-03-22T14:53:52.124Z,17.08
2023-03-22T14:56:33.535Z,17.17
2023-03-22T14:59:06.927Z,17.30
2023-03-22T15:01:42.929Z,17.31
2023-03-22T15:04:17.151Z,17.28
2023-03-22T15:06:52.195Z,17.18
2023-03-22T15:09:25.468Z,17.00
2023-03-22T15:12:04.281Z,16.88
2023-03-22T15:14:40.042Z,16.83
2023-03-22T15:17:15.825Z,16.84
2023-03-22T15:19:52.507Z,16.94
2023-03-22T15:22:26.621Z,16.96
2023-03-22T15:25:03.455Z,17.05
2023-03-22T15:27:39.919Z,17.10
2023-03-22T15:30:14.845Z,17.07
2023-03-22T15:32:48.998Z,17.11
2023-03-22T15:35:22.482Z,17.10
2023-03-22T15:37:59.370Z,16.73
2023-03-22T15:40:39.995Z,16.99
2023-03-22T15:43:26.083Z,17.06
2023-03-22T15:46:18.788Z,16.84
2023-03-22T15:55:34.834Z,16.80
2023-03-22T15:58:09.956Z,16.69
2023-03-22T16:00:45.211Z,16.71
2023-03-22T16:03:18.902Z,16.80
2023-03-22T16:05:51.676Z,16.72
2023-03-22T16:08:24.755Z,16.63
2023-03-22T16:10:57.915Z,16.46
2023-03-22T16:13:32.354Z,16.35
2023-03-22T16:16:08.132Z,16.59
2023-03-22T16:18:40.247Z,16.55
2023-03-22T16:21:15.058Z,16.40
2023-03-22T16:23:48.593Z,16.00
2023-03-22T16:26:21.030Z,16.08
2023-03-22T16:28:53.024Z,16.03
2023-03-22T16:31:30.301Z,16.09
2023-03-22T16:34:02.319Z,16.07
2023-03-22T16:36:35.615Z,16.22
2023-03-22T16:39:07.669Z,15.92
2023-03-22T16:41:43.566Z,15.95
2023-03-22T16:44:21.005Z,15.73
2023-03-22T16:46:55.676Z,15.77
2023-03-22T16:49:28.871Z,15.70
2023-03-22T16:52:01.132Z,15.67
2023-03-22T16:54:34.952Z,15.38
2023-03-22T16:57:08.091Z,15.59
2023-03-22T16:59:40.207Z,15.59
2023-03-22T17:02:23.770Z,15.42
2023-03-22T17:04:55.796Z,15.21
2023-03-22T17:07:31.385Z,15.11
2023-03-22T17:10:05.351Z,15.27
2023-03-22T17:12:39.189Z,15.37
2023-03-22T17:15:30.576Z,15.38
2023-03-22T17:18:06.233Z,15.40
2023-03-22T17:20:38.550Z,15.43
2023-03-22T17:23:13.654Z,15.16
2023-03-22T17:25:47.702Z,15.09
2023-03-22T17:28:20.022Z,15.07
2023-03-22T17:30:52.257Z,14.89
2023-03-22T17:33:26.626Z,14.76
2023-03-22T17:35:58.880Z,14.98
2023-03-22T17:38:36.196Z,15.03
2023-03-22T17:41:19.496Z,15.04
2023-03-22T17:43:51.278Z,14.83
2023-03-22T17:49:02.517Z,14.82
2023-03-22T17:51:35.176Z,14.97
2023-03-22T17:54:49.232Z,14.87
2023-03-22T17:57:32.960Z,14.90
2023-03-22T17:59:53.979Z,14.95
2023-03-22T18:02:27.864Z,15.00
2023-03-22T18:05:03.480Z,15.00
2023-03-22T18:07:36.532Z,14.98
2023-03-22T18:10:10.552Z,14.84
2023-03-22T18:12:45.632Z,14.89
2023-03-22T18:15:20.933Z,14.76
2023-03-22T18:17:55.736Z,14.76
2023-03-22T18:23:21.204Z,14.76
2023-03-22T18:26:01.944Z,14.80
2023-03-22T18:28:36.801Z,14.84
2023-03-22T18:31:08.863Z,14.69
2023-03-22T18:33:42.212Z,14.51
2023-03-22T18:36:19.674Z,14.63
2023-03-22T18:39:30.854Z,14.70
2023-03-22T18:41:49.136Z,14.73
2023-03-22T18:44:26.660Z,14.61
2023-03-22T18:46:58.183Z,14.63
2023-03-22T18:49:30.545Z,14.31
2023-03-22T18:54:43.748Z,14.28
2023-03-22T18:57:20.443Z,14.42
2023-03-22T18:59:58.600Z,14.30
2023-03-22T19:05:09.816Z,14.31
2023-03-22T19:07:55.590Z,14.20
2023-03-22T19:10:38.156Z,14.22
2023-03-22T19:13:09.811Z,14.16
2023-03-22T19:15:46.811Z,14.13
2023-03-22T19:18:22.606Z,14.12
2023-03-22T19:21:11.268Z,14.15
2023-03-22T19:23:51.316Z,14.17
2023-03-22T19:26:23.424Z,14.18
2023-03-22T19:28:56.772Z,14.13
2023-03-22T19:31:31.837Z,14.08
2023-03-22T19:34:06.460Z,14.10
2023-03-22T19:36:39.569Z,14.12
2023-03-22T19:39:15.188Z,14.16
2023-03-22T19:42:03.840Z,14.15
2023-03-22T19:44:40.685Z,14.17
2023-03-22T19:47:13.919Z,14.21
2023-03-22T19:49:46.258Z,14.14
2023-03-22T19:52:18.441Z,14.17
2023-03-22T19:54:54.996Z,14.19
2023-03-22T19:57:29.952Z,14.10
2023-03-22T20:00:43.802Z,14.14
2023-03-22T20:02:55.064Z,14.13
2023-03-22T20:05:27.865Z,14.15
2023-03-22T20:08:00.143Z,14.15
2023-03-22T20:10:34.959Z,14.14
2023-03-22T20:13:06.714Z,14.06
2023-03-22T20:15:39.806Z,14.08
2023-03-22T20:18:15.451Z,14.07
2023-03-22T20:20:47.435Z,14.11
2023-03-22T20:23:19.743Z,14.11
2023-03-22T20:26:01.332Z,14.12
2023-03-22T20:28:36.141Z,14.08
2023-03-22T20:31:12.240Z,14.08
2023-03-22T20:33:44.490Z,13.95
2023-03-22T20:36:17.241Z,13.95
2023-03-22T20:38:50.575Z,14.01
2023-03-22T20:41:25.170Z,13.89
2023-03-22T20:44:00.355Z,13.93
2023-03-22T20:46:32.349Z,13.93
2023-03-22T20:49:04.756Z,13.88
2023-03-22T20:51:36.995Z,13.81
2023-03-22T20:54:09.695Z,13.77
2023-03-22T20:56:44.537Z,13.78
2023-03-22T20:59:18.934Z,13.80
2023-03-22T21:01:51.228Z,13.75
2023-03-22T21:04:23.620Z,13.78
2023-03-22T21:06:55.800Z,13.79
2023-03-22T21:09:27.961Z,13.72
2023-03-22T21:12:02.545Z,13.71
2023-03-22T21:14:35.757Z,13.67
2023-03-22T21:17:07.736Z,13.67
2023-03-22T21:19:39.759Z,13.69
2023-03-22T21:22:13.091Z,13.64
2023-03-22T21:24:45.099Z,13.62
2023-03-22T21:27:20.813Z,13.59
2023-03-22T21:29:53.546Z,13.52
2023-03-22T21:32:26.427Z,13.47
2023-03-22T21:34:58.146Z,13.39
2023-03-22T21:37:32.309Z,13.34
2023-03-22T21:40:07.522Z,13.25
2023-03-22T21:42:47.200Z,13.20
2023-03-22T21:45:19.039Z,13.22
2023-03-22T21:47:53.556Z,13.22
2023-03-22T21:50:25.862Z,13.11
2023-03-22T21:52:57.553Z,13.15
2023-03-22T21:55:33.151Z,13.06
2023-03-22T21:58:08.131Z,13.14
2023-03-22T22:00:40.154Z,13.11
2023-03-22T22:03:12.566Z,13.08
2023-03-22T22:05:52.113Z,13.19
2023-03-22T22:08:24.714Z,13.19
2023-03-22T22:10:58.150Z,13.15
2023-03-22T22:13:35.057Z,13.18
2023-03-22T22:16:15.646Z,13.22
2023-03-22T22:18:47.410Z,13.11
2023-03-22T22:21:21.096Z,13.18
2023-03-22T22:23:53.808Z,13.08
2023-03-22T22:26:29.443Z,13.21
2023-03-22T22:29:07.262Z,13.26
2023-03-22T22:31:44.238Z,13.24
2023-03-22T22:34:16.668Z,13.30
2023-03-22T22:36:48.977Z,13.24
2023-03-22T22:39:20.526Z,13.25
2023-03-22T22:41:54.884Z,13.34
2023-03-22T22:44:29.223Z,13.33
2023-03-22T22:47:01.271Z,13.35
2023-03-22T22:49:34.559Z,13.35
2023-03-22T22:52:09.686Z,13.32
2023-03-22T22:54:41.255Z,13.35
2023-03-22T22:57:13.129Z,13.30
2023-03-22T22:59:47.466Z,13.22
2023-03-22T23:02:19.220Z,13.23
2023-03-22T23:04:52.940Z,13.22
2023-03-22T23:07:24.712Z,12.98
2023-03-22T23:09:57.276Z,12.96
2023-03-22T23:12:30.632Z,12.96
2023-03-22T23:15:06.249Z,13.00
2023-03-22T23:17:41.442Z,12.99
2023-03-22T23:20:14.155Z,12.96
2023-03-22T23:22:50.720Z,12.96
2023-03-22T23:25:22.432Z,12.84
2023-03-22T23:27:57.567Z,12.64
2023-03-22T23:30:32.406Z,12.75
2023-03-22T23:33:04.619Z,12.67
2023-03-22T23:35:36.829Z,12.62
2023-03-22T23:38:08.885Z,12.51
2023-03-22T23:40:58.318Z,12.36
2023-03-22T23:43:30.836Z,12.27
2023-03-22T23:46:06.226Z,12.21
2023-03-22T23:48:38.869Z,12.13
2023-03-22T23:51:13.205Z,12.14
2023-03-22T23:53:46.427Z,12.17
2023-03-22T23:56:21.795Z,12.16
2023-03-22T23:58:55.346Z,12.14
